sensor_id;sensor_type;location;lat;lon;timestamp;P1;durP1;ratioP1;P2;durP2;ratioP2
62905;SDS011;49003;51.038;3.602;2022-07-23T00:00:11;16.70;;;10.65;;
62905;SDS011;49003;51.038;3.602;2022-07-23T00:02:38;19.33;;;10.30;;
62905;SDS011;49003;51.038;3.602;2022-07-23T00:05:03;19.60;;;11.38;;
62905;SDS011;49003;51.038;3.602;2022-07-23T00:07:35;25.40;;;12.68;;
62905;SDS011;49003;51.038;3.602;2022-07-23T00:10:00;25.67;;;14.18;;
62905;SDS011;49003;51.038;3.602;2022-07-23T00:12:26;21.27;;;11.90;;
62905;SDS011;49003;51.038;3.602;2022-07-23T00:14:52;20.95;;;11.02;;
62905;SDS011;49003;51.038;3.602;2022-07-23T00:17:18;29.27;;;14.00;;
62905;SDS011;49003;51.038;3.602;2022-07-23T00:19:44;30.70;;;13.55;;
62905;SDS011;49003;51.038;3.602;2022-07-23T00:22:09;19.45;;;11.55;;
62905;SDS011;49003;51.038;3.602;2022-07-23T00:24:35;16.60;;;10.32;;
62905;SDS011;49003;51.038;3.602;2022-07-23T00:27:01;20.02;;;10.73;;
62905;SDS011;49003;51.038;3.602;2022-07-23T00:29:26;18.92;;;11.45;;
62905;SDS011;49003;51.038;3.602;2022-07-23T00:31:54;29.88;;;14.38;;
62905;SDS011;49003;51.038;3.602;2022-07-23T00:34:20;27.73;;;13.85;;
62905;SDS011;49003;51.038;3.602;2022-07-23T00:36:46;26.27;;;13.50;;
62905;SDS011;49003;51.038;3.602;2022-07-23T00:39:14;20.95;;;12.65;;
62905;SDS011;49003;51.038;3.602;2022-07-23T00:41:39;26.80;;;13.50;;
62905;SDS011;49003;51.038;3.602;2022-07-23T00:44:17;29.90;;;15.02;;
62905;SDS011;49003;51.038;3.602;2022-07-23T00:46:49;22.48;;;13.38;;
62905;SDS011;49003;51.038;3.602;2022-07-23T00:49:19;26.65;;;13.50;;
62905;SDS011;49003;51.038;3.602;2022-07-23T00:51:45;33.22;;;15.38;;
62905;SDS011;49003;51.038;3.602;2022-07-23T00:54:11;27.30;;;13.98;;
62905;SDS011;49003;51.038;3.602;2022-07-23T00:56:37;30.77;;;15.38;;
62905;SDS011;49003;51.038;3.602;2022-07-23T00:59:05;33.25;;;14.52;;
62905;SDS011;49003;51.038;3.602;2022-07-23T01:01:31;28.25;;;14.40;;
62905;SDS011;49003;51.038;3.602;2022-07-23T01:03:59;24.83;;;13.60;;
62905;SDS011;49003;51.038;3.602;2022-07-23T01:06:24;31.08;;;13.48;;
62905;SDS011;49003;51.038;3.602;2022-07-23T01:08:53;21.27;;;13.02;;
62905;SDS011;49003;51.038;3.602;2022-07-23T01:11:20;41.08;;;15.27;;
62905;SDS011;49003;51.038;3.602;2022-07-23T01:13:48;38.05;;;17.08;;
62905;SDS011;49003;51.038;3.602;2022-07-23T01:16:14;36.40;;;17.45;;
62905;SDS011;49003;51.038;3.602;2022-07-23T01:18:40;36.88;;;16.23;;
62905;SDS011;49003;51.038;3.602;2022-07-23T01:21:05;26.70;;;15.02;;
62905;SDS011;49003;51.038;3.602;2022-07-23T01:23:31;28.52;;;15.23;;
62905;SDS011;49003;51.038;3.602;2022-07-23T01:26:00;39.88;;;18.50;;
62905;SDS011;49003;51.038;3.602;2022-07-23T01:28:25;37.63;;;18.88;;
62905;SDS011;49003;51.038;3.602;2022-07-23T01:30:51;36.53;;;17.02;;
62905;SDS011;49003;51.038;3.602;2022-07-23T01:33:17;32.95;;;16.30;;
62905;SDS011;49003;51.038;3.602;2022-07-23T01:35:47;34.05;;;17.85;;
62905;SDS011;49003;51.038;3.602;2022-07-23T01:38:13;33.88;;;17.00;;
62905;SDS011;49003;51.038;3.602;2022-07-23T01:40:39;38.80;;;17.33;;
62905;SDS011;49003;51.038;3.602;2022-07-23T01:43:04;35.00;;;17.05;;
62905;SDS011;49003;51.038;3.602;2022-07-23T01:45:30;44.65;;;17.13;;
62905;SDS011;49003;51.038;3.602;2022-07-23T01:47:55;46.17;;;16.23;;
62905;SDS011;49003;51.038;3.602;2022-07-23T01:50:21;41.22;;;18.10;;
62905;SDS011;49003;51.038;3.602;2022-07-23T01:52:47;41.40;;;18.42;;
62905;SDS011;49003;51.038;3.602;2022-07-23T01:55:12;33.95;;;18.60;;
62905;SDS011;49003;51.038;3.602;2022-07-23T01:57:38;33.97;;;15.32;;
62905;SDS011;49003;51.038;3.602;2022-07-23T02:00:04;35.55;;;17.13;;
62905;SDS011;49003;51.038;3.602;2022-07-23T02:02:30;37.72;;;18.75;;
62905;SDS011;49003;51.038;3.602;2022-07-23T02:04:56;31.27;;;17.23;;
62905;SDS011;49003;51.038;3.602;2022-07-23T02:07:24;33.72;;;16.95;;
62905;SDS011;49003;51.038;3.602;2022-07-23T02:09:50;28.20;;;15.07;;
62905;SDS011;49003;51.038;3.602;2022-07-23T02:12:15;30.08;;;15.77;;
62905;SDS011;49003;51.038;3.602;2022-07-23T02:14:44;29.80;;;15.57;;
62905;SDS011;49003;51.038;3.602;2022-07-23T02:17:09;35.38;;;17.40;;
62905;SDS011;49003;51.038;3.602;2022-07-23T02:19:35;39.10;;;18.27;;
62905;SDS011;49003;51.038;3.602;2022-07-23T02:22:01;39.53;;;18.42;;
62905;SDS011;49003;51.038;3.602;2022-07-23T02:24:26;34.65;;;15.52;;
62905;SDS011;49003;51.038;3.602;2022-07-23T02:26:55;47.05;;;21.05;;
62905;SDS011;49003;51.038;3.602;2022-07-23T02:29:21;42.63;;;19.38;;
62905;SDS011;49003;51.038;3.602;2022-07-23T02:31:46;25.90;;;12.73;;
62905;SDS011;49003;51.038;3.602;2022-07-23T02:34:12;43.50;;;18.60;;
62905;SDS011;49003;51.038;3.602;2022-07-23T02:36:40;45.47;;;18.33;;
62905;SDS011;49003;51.038;3.602;2022-07-23T02:39:08;38.83;;;19.00;;
62905;SDS011;49003;51.038;3.602;2022-07-23T02:41:34;37.13;;;16.95;;
62905;SDS011;49003;51.038;3.602;2022-07-23T02:43:59;40.20;;;18.73;;
62905;SDS011;49003;51.038;3.602;2022-07-23T02:46:25;37.03;;;17.40;;
62905;SDS011;49003;51.038;3.602;2022-07-23T02:48:53;44.72;;;19.58;;
62905;SDS011;49003;51.038;3.602;2022-07-23T02:51:19;43.67;;;19.17;;
62905;SDS011;49003;51.038;3.602;2022-07-23T02:53:47;36.00;;;17.02;;
62905;SDS011;49003;51.038;3.602;2022-07-23T02:56:13;36.22;;;15.82;;
62905;SDS011;49003;51.038;3.602;2022-07-23T02:58:38;41.95;;;18.95;;
62905;SDS011;49003;51.038;3.602;2022-07-23T03:01:06;49.30;;;18.75;;
62905;SDS011;49003;51.038;3.602;2022-07-23T03:03:37;44.15;;;19.38;;
62905;SDS011;49003;51.038;3.602;2022-07-23T03:06:02;37.03;;;18.23;;
62905;SDS011;49003;51.038;3.602;2022-07-23T03:08:28;37.40;;;17.60;;
62905;SDS011;49003;51.038;3.602;2022-07-23T03:10:56;49.53;;;19.45;;
62905;SDS011;49003;51.038;3.602;2022-07-23T03:13:24;52.10;;;20.55;;
62905;SDS011;49003;51.038;3.602;2022-07-23T03:15:50;42.03;;;19.67;;
62905;SDS011;49003;51.038;3.602;2022-07-23T03:18:16;40.35;;;18.02;;
62905;SDS011;49003;51.038;3.602;2022-07-23T03:20:47;46.60;;;18.85;;
62905;SDS011;49003;51.038;3.602;2022-07-23T03:23:15;39.90;;;17.95;;
62905;SDS011;49003;51.038;3.602;2022-07-23T03:25:41;41.65;;;18.35;;
62905;SDS011;49003;51.038;3.602;2022-07-23T03:28:07;39.90;;;16.33;;
62905;SDS011;49003;51.038;3.602;2022-07-23T03:30:32;53.65;;;21.52;;
62905;SDS011;49003;51.038;3.602;2022-07-23T03:32:58;57.90;;;22.98;;
62905;SDS011;49003;51.038;3.602;2022-07-23T03:35:23;56.70;;;22.80;;
62905;SDS011;49003;51.038;3.602;2022-07-23T03:37:49;59.42;;;23.83;;
62905;SDS011;49003;51.038;3.602;2022-07-23T03:40:15;41.85;;;18.40;;
62905;SDS011;49003;51.038;3.602;2022-07-23T03:42:41;59.28;;;22.00;;
62905;SDS011;49003;51.038;3.602;2022-07-23T03:45:10;51.03;;;20.23;;
62905;SDS011;49003;51.038;3.602;2022-07-23T03:47:35;50.55;;;22.05;;
62905;SDS011;49003;51.038;3.602;2022-07-23T03:50:02;44.00;;;19.25;;
62905;SDS011;49003;51.038;3.602;2022-07-23T03:52:28;52.95;;;21.08;;
62905;SDS011;49003;51.038;3.602;2022-07-23T03:54:53;63.63;;;22.40;;
62905;SDS011;49003;51.038;3.602;2022-07-23T03:57:19;51.83;;;20.67;;
62905;SDS011;49003;51.038;3.602;2022-07-23T03:59:45;42.45;;;20.10;;
62905;SDS011;49003;51.038;3.602;2022-07-23T04:02:10;42.47;;;18.88;;
62905;SDS011;49003;51.038;3.602;2022-07-23T04:04:36;34.05;;;16.60;;
62905;SDS011;49003;51.038;3.602;2022-07-23T04:07:04;41.40;;;18.27;;
62905;SDS011;49003;51.038;3.602;2022-07-23T04:09:29;43.42;;;17.65;;
62905;SDS011;49003;51.038;3.602;2022-07-23T04:11:55;44.50;;;17.75;;
62905;SDS011;49003;51.038;3.602;2022-07-23T04:14:21;54.45;;;20.17;;
62905;SDS011;49003;51.038;3.602;2022-07-23T04:16:46;48.83;;;20.30;;
62905;SDS011;49003;51.038;3.602;2022-07-23T04:19:12;51.40;;;20.42;;
62905;SDS011;49003;51.038;3.602;2022-07-23T04:21:40;54.85;;;18.90;;
62905;SDS011;49003;51.038;3.602;2022-07-23T04:24:06;53.13;;;19.33;;
62905;SDS011;49003;51.038;3.602;2022-07-23T04:26:31;49.80;;;20.38;;
62905;SDS011;49003;51.038;3.602;2022-07-23T04:28:59;54.35;;;20.92;;
62905;SDS011;49003;51.038;3.602;2022-07-23T04:31:27;36.92;;;16.88;;
62905;SDS011;49003;51.038;3.602;2022-07-23T04:33:55;41.80;;;17.73;;
62905;SDS011;49003;51.038;3.602;2022-07-23T04:36:21;51.08;;;18.17;;
62905;SDS011;49003;51.038;3.602;2022-07-23T04:38:46;45.97;;;19.10;;
62905;SDS011;49003;51.038;3.602;2022-07-23T04:41:12;43.47;;;17.77;;
62905;SDS011;49003;51.038;3.602;2022-07-23T04:43:38;46.05;;;18.60;;
62905;SDS011;49003;51.038;3.602;2022-07-23T04:46:03;51.53;;;19.80;;
62905;SDS011;49003;51.038;3.602;2022-07-23T04:48:31;45.90;;;18.98;;
62905;SDS011;49003;51.038;3.602;2022-07-23T04:50:57;57.30;;;21.17;;
62905;SDS011;49003;51.038;3.602;2022-07-23T04:53:24;45.22;;;18.55;;
62905;SDS011;49003;51.038;3.602;2022-07-23T04:55:50;52.22;;;20.23;;
62905;SDS011;49003;51.038;3.602;2022-07-23T04:58:18;52.80;;;21.67;;
62905;SDS011;49003;51.038;3.602;2022-07-23T05:00:44;41.72;;;17.15;;
62905;SDS011;49003;51.038;3.602;2022-07-23T05:03:09;44.17;;;17.42;;
62905;SDS011;49003;51.038;3.602;2022-07-23T05:05:35;44.05;;;18.88;;
62905;SDS011;49003;51.038;3.602;2022-07-23T05:08:01;46.42;;;19.42;;
62905;SDS011;49003;51.038;3.602;2022-07-23T05:10:27;61.15;;;22.73;;
62905;SDS011;49003;51.038;3.602;2022-07-23T05:12:55;60.08;;;23.15;;
62905;SDS011;49003;51.038;3.602;2022-07-23T05:15:20;49.90;;;20.13;;
62905;SDS011;49003;51.038;3.602;2022-07-23T05:17:46;39.63;;;18.25;;
62905;SDS011;49003;51.038;3.602;2022-07-23T05:20:12;48.70;;;19.65;;
62905;SDS011;49003;51.038;3.602;2022-07-23T05:22:38;67.05;;;22.20;;
62905;SDS011;49003;51.038;3.602;2022-07-23T05:25:04;65.82;;;24.52;;
62905;SDS011;49003;51.038;3.602;2022-07-23T05:27:33;56.53;;;24.20;;
62905;SDS011;49003;51.038;3.602;2022-07-23T05:29:58;44.63;;;21.30;;
62905;SDS011;49003;51.038;3.602;2022-07-23T05:32:24;63.47;;;26.00;;
62905;SDS011;49003;51.038;3.602;2022-07-23T05:34:50;61.10;;;25.17;;
62905;SDS011;49003;51.038;3.602;2022-07-23T05:37:16;59.92;;;26.42;;
62905;SDS011;49003;51.038;3.602;2022-07-23T05:39:42;60.88;;;24.98;;
62905;SDS011;49003;51.038;3.602;2022-07-23T05:42:10;57.83;;;24.05;;
62905;SDS011;49003;51.038;3.602;2022-07-23T05:44:38;53.92;;;23.80;;
62905;SDS011;49003;51.038;3.602;2022-07-23T05:47:06;49.85;;;22.73;;
62905;SDS011;49003;51.038;3.602;2022-07-23T05:49:32;44.25;;;21.30;;
62905;SDS011;49003;51.038;3.602;2022-07-23T05:52:03;44.22;;;19.98;;
62905;SDS011;49003;51.038;3.602;2022-07-23T05:54:33;43.25;;;20.70;;
62905;SDS011;49003;51.038;3.602;2022-07-23T05:57:00;37.35;;;19.48;;
62905;SDS011;49003;51.038;3.602;2022-07-23T05:59:25;37.50;;;19.60;;
62905;SDS011;49003;51.038;3.602;2022-07-23T06:01:53;35.40;;;20.23;;
62905;SDS011;49003;51.038;3.602;2022-07-23T06:04:21;35.22;;;18.38;;
62905;SDS011;49003;51.038;3.602;2022-07-23T06:06:47;33.92;;;18.70;;
62905;SDS011;49003;51.038;3.602;2022-07-23T06:09:13;37.13;;;19.00;;
62905;SDS011;49003;51.038;3.602;2022-07-23T06:11:40;38.05;;;19.45;;
62905;SDS011;49003;51.038;3.602;2022-07-23T06:14:06;35.92;;;19.42;;
62905;SDS011;49003;51.038;3.602;2022-07-23T06:16:32;31.30;;;17.17;;
62905;SDS011;49003;51.038;3.602;2022-07-23T06:18:58;29.95;;;16.38;;
62905;SDS011;49003;51.038;3.602;2022-07-23T06:21:26;28.10;;;17.08;;
62905;SDS011;49003;51.038;3.602;2022-07-23T06:23:51;28.38;;;16.52;;
62905;SDS011;49003;51.038;3.602;2022-07-23T06:26:17;30.38;;;17.60;;
62905;SDS011;49003;51.038;3.602;2022-07-23T06:28:43;25.35;;;15.63;;
62905;SDS011;49003;51.038;3.602;2022-07-23T06:31:08;27.63;;;15.90;;
62905;SDS011;49003;51.038;3.602;2022-07-23T06:33:34;24.58;;;15.60;;
62905;SDS011;49003;51.038;3.602;2022-07-23T06:36:00;22.42;;;14.60;;
62905;SDS011;49003;51.038;3.602;2022-07-23T06:38:25;23.40;;;14.25;;
62905;SDS011;49003;51.038;3.602;2022-07-23T06:40:51;23.63;;;13.65;;
62905;SDS011;49003;51.038;3.602;2022-07-23T06:43:16;24.08;;;12.27;;
62905;SDS011;49003;51.038;3.602;2022-07-23T06:45:44;25.25;;;11.70;;
62905;SDS011;49003;51.038;3.602;2022-07-23T06:48:10;17.85;;;12.05;;
62905;SDS011;49003;51.038;3.602;2022-07-23T06:50:36;15.13;;;10.80;;
62905;SDS011;49003;51.038;3.602;2022-07-23T06:53:01;21.08;;;11.68;;
62905;SDS011;49003;51.038;3.602;2022-07-23T06:55:29;13.40;;;10.55;;
62905;SDS011;49003;51.038;3.602;2022-07-23T06:57:56;17.38;;;9.98;;
62905;SDS011;49003;51.038;3.602;2022-07-23T07:00:21;16.00;;;10.20;;
62905;SDS011;49003;51.038;3.602;2022-07-23T07:02:47;16.65;;;10.00;;
62905;SDS011;49003;51.038;3.602;2022-07-23T07:05:13;15.63;;;9.73;;
62905;SDS011;49003;51.038;3.602;2022-07-23T07:07:41;16.90;;;9.82;;
62905;SDS011;49003;51.038;3.602;2022-07-23T07:10:07;14.07;;;9.05;;
62905;SDS011;49003;51.038;3.602;2022-07-23T07:12:33;14.00;;;8.93;;
62905;SDS011;49003;51.038;3.602;2022-07-23T07:14:58;18.70;;;8.90;;
62905;SDS011;49003;51.038;3.602;2022-07-23T07:17:24;15.70;;;8.65;;
62905;SDS011;49003;51.038;3.602;2022-07-23T07:19:50;12.93;;;8.93;;
62905;SDS011;49003;51.038;3.602;2022-07-23T07:22:15;13.10;;;8.90;;
62905;SDS011;49003;51.038;3.602;2022-07-23T07:24:42;17.05;;;9.60;;
62905;SDS011;49003;51.038;3.602;2022-07-23T07:27:07;14.20;;;8.82;;
62905;SDS011;49003;51.038;3.602;2022-07-23T07:29:33;15.57;;;8.95;;
62905;SDS011;49003;51.038;3.602;2022-07-23T07:32:01;13.65;;;8.20;;
62905;SDS011;49003;51.038;3.602;2022-07-23T07:34:26;16.38;;;8.13;;
62905;SDS011;49003;51.038;3.602;2022-07-23T07:36:52;12.55;;;8.13;;
62905;SDS011;49003;51.038;3.602;2022-07-23T07:39:18;13.93;;;7.45;;
62905;SDS011;49003;51.038;3.602;2022-07-23T07:41:43;13.20;;;7.63;;
62905;SDS011;49003;51.038;3.602;2022-07-23T07:44:09;14.40;;;7.70;;
62905;SDS011;49003;51.038;3.602;2022-07-23T07:46:37;11.60;;;7.05;;
62905;SDS011;49003;51.038;3.602;2022-07-23T07:49:02;8.70;;;6.22;;
62905;SDS011;49003;51.038;3.602;2022-07-23T07:51:28;9.60;;;6.55;;
62905;SDS011;49003;51.038;3.602;2022-07-23T07:53:59;15.25;;;6.93;;
62905;SDS011;49003;51.038;3.602;2022-07-23T07:56:25;13.07;;;6.65;;
62905;SDS011;49003;51.038;3.602;2022-07-23T07:58:51;8.93;;;6.25;;
62905;SDS011;49003;51.038;3.602;2022-07-23T08:01:17;14.93;;;6.75;;
62905;SDS011;49003;51.038;3.602;2022-07-23T08:03:47;8.70;;;6.20;;
62905;SDS011;49003;51.038;3.602;2022-07-23T08:06:13;16.75;;;7.13;;
62905;SDS011;49003;51.038;3.602;2022-07-23T08:08:38;12.27;;;6.78;;
62905;SDS011;49003;51.038;3.602;2022-07-23T08:11:07;11.02;;;6.53;;
62905;SDS011;49003;51.038;3.602;2022-07-23T08:13:33;11.13;;;6.13;;
62905;SDS011;49003;51.038;3.602;2022-07-23T08:15:58;10.55;;;6.28;;
62905;SDS011;49003;51.038;3.602;2022-07-23T08:18:24;8.63;;;5.75;;
62905;SDS011;49003;51.038;3.602;2022-07-23T08:20:49;11.20;;;6.28;;
62905;SDS011;49003;51.038;3.602;2022-07-23T08:23:15;8.43;;;6.20;;
62905;SDS011;49003;51.038;3.602;2022-07-23T08:25:44;12.27;;;6.20;;
62905;SDS011;49003;51.038;3.602;2022-07-23T08:28:11;13.45;;;6.53;;
62905;SDS011;49003;51.038;3.602;2022-07-23T08:30:38;11.95;;;6.57;;
62905;SDS011;49003;51.038;3.602;2022-07-23T08:33:11;9.88;;;6.28;;
62905;SDS011;49003;51.038;3.602;2022-07-23T08:35:46;10.27;;;5.78;;
62905;SDS011;49003;51.038;3.602;2022-07-23T08:38:15;8.63;;;5.40;;
62905;SDS011;49003;51.038;3.602;2022-07-23T08:40:43;13.60;;;5.68;;
62905;SDS011;49003;51.038;3.602;2022-07-23T08:43:17;14.98;;;5.93;;
62905;SDS011;49003;51.038;3.602;2022-07-23T08:45:45;8.85;;;5.35;;
62905;SDS011;49003;51.038;3.602;2022-07-23T08:48:16;9.63;;;5.43;;
62905;SDS011;49003;51.038;3.602;2022-07-23T08:50:47;8.45;;;5.40;;
62905;SDS011;49003;51.038;3.602;2022-07-23T08:53:14;10.88;;;4.85;;
62905;SDS011;49003;51.038;3.602;2022-07-23T08:55:44;10.27;;;5.43;;
62905;SDS011;49003;51.038;3.602;2022-07-23T08:58:11;9.27;;;5.20;;
62905;SDS011;49003;51.038;3.602;2022-07-23T09:00:37;10.68;;;6.15;;
62905;SDS011;49003;51.038;3.602;2022-07-23T09:03:03;10.02;;;4.93;;
62905;SDS011;49003;51.038;3.602;2022-07-23T09:05:28;6.55;;;4.38;;
62905;SDS011;49003;51.038;3.602;2022-07-23T09:08:07;12.63;;;5.35;;
62905;SDS011;49003;51.038;3.602;2022-07-23T09:11:08;13.82;;;5.18;;
62905;SDS011;49003;51.038;3.602;2022-07-23T09:16:16;8.60;;;4.90;;
62905;SDS011;49003;51.038;3.602;2022-07-23T09:23:51;8.98;;;5.43;;
62905;SDS011;49003;51.038;3.602;2022-07-23T09:26:21;10.73;;;4.85;;
62905;SDS011;49003;51.038;3.602;2022-07-23T09:28:49;7.80;;;5.07;;
62905;SDS011;49003;51.038;3.602;2022-07-23T09:31:18;8.43;;;4.80;;
62905;SDS011;49003;51.038;3.602;2022-07-23T09:33:44;10.13;;;3.95;;
62905;SDS011;49003;51.038;3.602;2022-07-23T09:36:10;7.95;;;4.20;;
62905;SDS011;49003;51.038;3.602;2022-07-23T09:38:36;8.63;;;3.83;;
62905;SDS011;49003;51.038;3.602;2022-07-23T09:41:13;13.25;;;4.10;;
62905;SDS011;49003;51.038;3.602;2022-07-23T09:43:40;8.05;;;4.70;;
62905;SDS011;49003;51.038;3.602;2022-07-23T09:46:18;7.85;;;4.05;;
62905;SDS011;49003;51.038;3.602;2022-07-23T09:48:46;10.40;;;4.22;;
62905;SDS011;49003;51.038;3.602;2022-07-23T09:51:15;5.72;;;3.75;;
62905;SDS011;49003;51.038;3.602;2022-07-23T09:53:44;7.93;;;3.70;;
62905;SDS011;49003;51.038;3.602;2022-07-23T09:56:11;6.30;;;3.33;;
62905;SDS011;49003;51.038;3.602;2022-07-23T09:58:39;10.70;;;4.00;;
62905;SDS011;49003;51.038;3.602;2022-07-23T10:01:15;5.65;;;3.40;;
62905;SDS011;49003;51.038;3.602;2022-07-23T10:03:42;7.43;;;3.80;;
62905;SDS011;49003;51.038;3.602;2022-07-23T10:06:08;5.00;;;3.35;;
62905;SDS011;49003;51.038;3.602;2022-07-23T10:08:35;3.92;;;2.03;;
62905;SDS011;49003;51.038;3.602;2022-07-23T10:11:05;4.45;;;2.40;;
62905;SDS011;49003;51.038;3.602;2022-07-23T10:13:32;5.93;;;3.17;;
62905;SDS011;49003;51.038;3.602;2022-07-23T10:16:15;2.80;;;2.30;;
62905;SDS011;49003;51.038;3.602;2022-07-23T10:18:41;6.97;;;3.00;;
62905;SDS011;49003;51.038;3.602;2022-07-23T10:21:07;3.72;;;3.38;;
62905;SDS011;49003;51.038;3.602;2022-07-23T10:23:35;5.38;;;2.88;;
62905;SDS011;49003;51.038;3.602;2022-07-23T10:26:10;3.58;;;2.70;;
62905;SDS011;49003;51.038;3.602;2022-07-23T10:28:58;4.60;;;2.80;;
62905;SDS011;49003;51.038;3.602;2022-07-23T10:31:52;6.88;;;2.80;;
62905;SDS011;49003;51.038;3.602;2022-07-23T10:34:37;6.30;;;2.70;;
62905;SDS011;49003;51.038;3.602;2022-07-23T10:37:38;6.63;;;3.20;;
62905;SDS011;49003;51.038;3.602;2022-07-23T10:40:14;6.63;;;3.17;;
62905;SDS011;49003;51.038;3.602;2022-07-23T10:42:42;4.63;;;2.97;;
62905;SDS011;49003;51.038;3.602;2022-07-23T10:45:22;4.85;;;2.20;;
62905;SDS011;49003;51.038;3.602;2022-07-23T10:47:48;7.07;;;2.72;;
62905;SDS011;49003;51.038;3.602;2022-07-23T10:55:49;6.13;;;3.20;;
62905;SDS011;49003;51.038;3.602;2022-07-23T10:58:23;6.47;;;3.20;;
62905;SDS011;49003;51.038;3.602;2022-07-23T11:03:58;7.38;;;2.70;;
62905;SDS011;49003;51.038;3.602;2022-07-23T11:06:24;5.70;;;2.75;;
62905;SDS011;49003;51.038;3.602;2022-07-23T11:09:57;5.50;;;3.20;;
62905;SDS011;49003;51.038;3.602;2022-07-23T11:17:32;4.95;;;2.80;;
62905;SDS011;49003;51.038;3.602;2022-07-23T11:25:10;5.28;;;2.83;;
62905;SDS011;49003;51.038;3.602;2022-07-23T11:30:04;4.80;;;2.40;;
62905;SDS011;49003;51.038;3.602;2022-07-23T11:32:33;4.45;;;2.40;;
62905;SDS011;49003;51.038;3.602;2022-07-23T11:35:02;3.25;;;2.17;;
62905;SDS011;49003;51.038;3.602;2022-07-23T11:37:42;2.63;;;2.03;;
62905;SDS011;49003;51.038;3.602;2022-07-23T11:40:12;3.72;;;1.90;;
62905;SDS011;49003;51.038;3.602;2022-07-23T11:42:55;6.03;;;1.85;;
62905;SDS011;49003;51.038;3.602;2022-07-23T11:45:29;5.25;;;2.38;;
62905;SDS011;49003;51.038;3.602;2022-07-23T11:48:02;4.88;;;2.33;;
62905;SDS011;49003;51.038;3.602;2022-07-23T11:50:29;6.45;;;2.30;;
62905;SDS011;49003;51.038;3.602;2022-07-23T11:52:58;6.07;;;2.40;;
62905;SDS011;49003;51.038;3.602;2022-07-23T11:55:23;5.38;;;2.72;;
62905;SDS011;49003;51.038;3.602;2022-07-23T11:57:53;4.28;;;2.20;;
62905;SDS011;49003;51.038;3.602;2022-07-23T12:00:20;3.55;;;2.38;;
62905;SDS011;49003;51.038;3.602;2022-07-23T12:02:58;6.30;;;2.92;;
62905;SDS011;49003;51.038;3.602;2022-07-23T12:05:28;5.38;;;2.88;;
62905;SDS011;49003;51.038;3.602;2022-07-23T12:07:58;3.53;;;2.60;;
62905;SDS011;49003;51.038;3.602;2022-07-23T12:12:55;5.28;;;3.00;;
62905;SDS011;49003;51.038;3.602;2022-07-23T12:15:29;7.68;;;2.85;;
62905;SDS011;49003;51.038;3.602;2022-07-23T12:18:04;7.53;;;2.60;;
62905;SDS011;49003;51.038;3.602;2022-07-23T12:20:32;4.82;;;3.30;;
62905;SDS011;49003;51.038;3.602;2022-07-23T12:23:09;3.53;;;2.63;;
62905;SDS011;49003;51.038;3.602;2022-07-23T12:25:38;5.35;;;3.03;;
62905;SDS011;49003;51.038;3.602;2022-07-23T12:28:06;4.75;;;3.45;;
62905;SDS011;49003;51.038;3.602;2022-07-23T12:33:03;6.50;;;3.13;;
62905;SDS011;49003;51.038;3.602;2022-07-23T12:35:40;6.57;;;3.22;;
62905;SDS011;49003;51.038;3.602;2022-07-23T12:38:08;5.28;;;2.45;;
62905;SDS011;49003;51.038;3.602;2022-07-23T12:40:36;7.18;;;3.33;;
62905;SDS011;49003;51.038;3.602;2022-07-23T12:43:11;7.60;;;3.53;;
62905;SDS011;49003;51.038;3.602;2022-07-23T12:45:49;4.85;;;2.78;;
62905;SDS011;49003;51.038;3.602;2022-07-23T12:48:17;6.75;;;3.45;;
62905;SDS011;49003;51.038;3.602;2022-07-23T12:56:06;6.05;;;3.08;;
62905;SDS011;49003;51.038;3.602;2022-07-23T12:58:40;3.75;;;2.85;;
62905;SDS011;49003;51.038;3.602;2022-07-23T13:01:08;5.57;;;3.13;;
62905;SDS011;49003;51.038;3.602;2022-07-23T13:03:37;3.97;;;2.95;;
62905;SDS011;49003;51.038;3.602;2022-07-23T13:06:09;9.48;;;3.78;;
62905;SDS011;49003;51.038;3.602;2022-07-23T13:08:38;7.72;;;3.28;;
62905;SDS011;49003;51.038;3.602;2022-07-23T13:11:07;7.05;;;3.00;;
62905;SDS011;49003;51.038;3.602;2022-07-23T13:13:35;6.05;;;3.15;;
62905;SDS011;49003;51.038;3.602;2022-07-23T13:16:01;5.72;;;3.63;;
62905;SDS011;49003;51.038;3.602;2022-07-23T13:18:27;6.15;;;3.00;;
62905;SDS011;49003;51.038;3.602;2022-07-23T13:20:53;7.53;;;3.50;;
62905;SDS011;49003;51.038;3.602;2022-07-23T13:23:20;4.65;;;3.03;;
62905;SDS011;49003;51.038;3.602;2022-07-23T13:25:46;6.72;;;3.47;;
62905;SDS011;49003;51.038;3.602;2022-07-23T13:28:15;5.13;;;3.17;;
62905;SDS011;49003;51.038;3.602;2022-07-23T13:30:42;5.57;;;2.63;;
62905;SDS011;49003;51.038;3.602;2022-07-23T13:33:08;5.15;;;2.85;;
62905;SDS011;49003;51.038;3.602;2022-07-23T13:35:35;4.88;;;3.10;;
62905;SDS011;49003;51.038;3.602;2022-07-23T13:38:02;4.78;;;2.92;;
62905;SDS011;49003;51.038;3.602;2022-07-23T13:40:29;6.75;;;3.92;;
62905;SDS011;49003;51.038;3.602;2022-07-23T13:42:57;7.93;;;3.47;;
62905;SDS011;49003;51.038;3.602;2022-07-23T13:45:28;7.10;;;2.90;;
62905;SDS011;49003;51.038;3.602;2022-07-23T13:47:54;7.20;;;3.08;;
62905;SDS011;49003;51.038;3.602;2022-07-23T13:50:19;4.65;;;2.53;;
62905;SDS011;49003;51.038;3.602;2022-07-23T13:52:45;3.33;;;2.47;;
62905;SDS011;49003;51.038;3.602;2022-07-23T13:55:11;4.25;;;3.10;;
62905;SDS011;49003;51.038;3.602;2022-07-23T13:57:37;4.03;;;2.70;;
62905;SDS011;49003;51.038;3.602;2022-07-23T14:00:06;4.18;;;2.50;;
62905;SDS011;49003;51.038;3.602;2022-07-23T14:02:34;5.50;;;3.47;;
62905;SDS011;49003;51.038;3.602;2022-07-23T14:05:01;7.10;;;3.13;;
62905;SDS011;49003;51.038;3.602;2022-07-23T14:07:28;6.03;;;3.00;;
62905;SDS011;49003;51.038;3.602;2022-07-23T14:09:54;6.95;;;2.95;;
62905;SDS011;49003;51.038;3.602;2022-07-23T14:12:21;4.22;;;3.08;;
62905;SDS011;49003;51.038;3.602;2022-07-23T14:14:47;4.75;;;2.90;;
62905;SDS011;49003;51.038;3.602;2022-07-23T14:17:13;9.70;;;4.15;;
62905;SDS011;49003;51.038;3.602;2022-07-23T14:19:38;3.97;;;3.10;;
62905;SDS011;49003;51.038;3.602;2022-07-23T14:22:04;6.00;;;3.38;;
62905;SDS011;49003;51.038;3.602;2022-07-23T14:24:30;9.05;;;4.57;;
62905;SDS011;49003;51.038;3.602;2022-07-23T14:26:59;7.47;;;3.60;;
62905;SDS011;49003;51.038;3.602;2022-07-23T14:29:26;8.05;;;3.60;;
62905;SDS011;49003;51.038;3.602;2022-07-23T14:31:52;6.85;;;3.83;;
62905;SDS011;49003;51.038;3.602;2022-07-23T14:34:20;6.47;;;4.25;;
62905;SDS011;49003;51.038;3.602;2022-07-23T14:36:48;9.80;;;4.32;;
62905;SDS011;49003;51.038;3.602;2022-07-23T14:39:14;7.25;;;3.58;;
62905;SDS011;49003;51.038;3.602;2022-07-23T14:41:40;6.30;;;4.65;;
62905;SDS011;49003;51.038;3.602;2022-07-23T14:44:06;5.50;;;3.90;;
62905;SDS011;49003;51.038;3.602;2022-07-23T14:46:31;10.38;;;4.15;;
62905;SDS011;49003;51.038;3.602;2022-07-23T14:48:57;4.85;;;3.80;;
62905;SDS011;49003;51.038;3.602;2022-07-23T14:51:23;5.22;;;3.67;;
62905;SDS011;49003;51.038;3.602;2022-07-23T14:53:49;6.47;;;4.32;;
62905;SDS011;49003;51.038;3.602;2022-07-23T14:56:15;14.70;;;5.00;;
62905;SDS011;49003;51.038;3.602;2022-07-23T14:58:40;7.18;;;5.13;;
62905;SDS011;49003;51.038;3.602;2022-07-23T15:01:09;7.38;;;4.15;;
62905;SDS011;49003;51.038;3.602;2022-07-23T15:03:35;8.35;;;4.35;;
62905;SDS011;49003;51.038;3.602;2022-07-23T15:06:00;6.03;;;4.18;;
62905;SDS011;49003;51.038;3.602;2022-07-23T15:08:26;7.00;;;4.18;;
62905;SDS011;49003;51.038;3.602;2022-07-23T15:10:52;8.45;;;3.80;;
62905;SDS011;49003;51.038;3.602;2022-07-23T15:13:17;5.68;;;4.00;;
62905;SDS011;49003;51.038;3.602;2022-07-23T15:15:45;6.38;;;4.63;;